sensor_id;sensor_type;location;lat;lon;timestamp;temperature;humidity
59148;DHT22;44930;52.878;6.168;2023-03-12T00:00:20;0.20;99.90
59148;DHT22;44930;52.878;6.168;2023-03-12T00:02:46;0.10;99.90
59148;DHT22;44930;52.878;6.168;2023-03-12T00:05:12;0.20;99.90
59148;DHT22;44930;52.878;6.168;2023-03-12T00:07:37;0.20;99.90
59148;DHT22;44930;52.878;6.168;2023-03-12T00:10:04;0.10;99.90
59148;DHT22;44930;52.878;6.168;2023-03-12T00:12:30;0.10;99.90
59148;DHT22;44930;52.878;6.168;2023-03-12T00:14:56;0.00;99.90
59148;DHT22;44930;52.878;6.168;2023-03-12T00:17:21;0.00;99.90
59148;DHT22;44930;52.878;6.168;2023-03-12T00:19:51;0.00;99.90
59148;DHT22;44930;52.878;6.168;2023-03-12T00:22:17;0.00;99.90
59148;DHT22;44930;52.878;6.168;2023-03-12T00:24:42;0.00;99.90
59148;DHT22;44930;52.878;6.168;2023-03-12T00:36:53;0.00;99.90
59148;DHT22;44930;52.878;6.168;2023-03-12T00:39:19;0.00;99.90
59148;DHT22;44930;52.878;6.168;2023-03-12T00:41:44;0.00;99.90
59148;DHT22;44930;52.878;6.168;2023-03-12T00:44:10;0.00;99.90
59148;DHT22;44930;52.878;6.168;2023-03-12T00:46:35;-0.10;99.90
59148;DHT22;44930;52.878;6.168;2023-03-12T00:56:20;0.10;99.90
59148;DHT22;44930;52.878;6.168;2023-03-12T01:03:38;0.00;99.90
59148;DHT22;44930;52.878;6.168;2023-03-12T01:06:04;-0.40;99.90
59148;DHT22;44930;52.878;6.168;2023-03-12T01:08:30;0.10;99.90
59148;DHT22;44930;52.878;6.168;2023-03-12T01:20:40;0.20;99.90
59148;DHT22;44930;52.878;6.168;2023-03-12T01:23:06;0.10;99.90
59148;DHT22;44930;52.878;6.168;2023-03-12T01:25:31;0.00;99.90
59148;DHT22;44930;52.878;6.168;2023-03-12T01:27:58;0.10;99.90
59148;DHT22;44930;52.878;6.168;2023-03-12T01:30:24;0.10;99.90
59148;DHT22;44930;52.878;6.168;2023-03-12T01:32:51;0.30;99.90
59148;DHT22;44930;52.878;6.168;2023-03-12T01:37:43;0.20;99.90
59148;DHT22;44930;52.878;6.168;2023-03-12T01:40:17;0.50;99.90
59148;DHT22;44930;52.878;6.168;2023-03-12T01:48:19;0.20;99.90
59148;DHT22;44930;52.878;6.168;2023-03-12T01:50:45;0.10;99.90
59148;DHT22;44930;52.878;6.168;2023-03-12T01:53:11;0.20;99.90
59148;DHT22;44930;52.878;6.168;2023-03-12T01:55:37;0.20;99.90
59148;DHT22;44930;52.878;6.168;2023-03-12T01:58:03;0.10;99.90
59148;DHT22;44930;52.878;6.168;2023-03-12T02:03:06;-0.10;99.90
59148;DHT22;44930;52.878;6.168;2023-03-12T02:05:46;0.30;99.90
59148;DHT22;44930;52.878;6.168;2023-03-12T02:08:16;0.30;99.90
59148;DHT22;44930;52.878;6.168;2023-03-12T02:10:42;0.30;99.90
59148;DHT22;44930;52.878;6.168;2023-03-12T02:13:07;0.30;99.90
59148;DHT22;44930;52.878;6.168;2023-03-12T02:15:34;0.40;99.90
59148;DHT22;44930;52.878;6.168;2023-03-12T02:18:09;0.20;99.90
59148;DHT22;44930;52.878;6.168;2023-03-12T02:20:47;0.50;99.90
59148;DHT22;44930;52.878;6.168;2023-03-12T02:23:34;0.80;99.90
59148;DHT22;44930;52.878;6.168;2023-03-12T02:26:03;0.60;99.90
59148;DHT22;44930;52.878;6.168;2023-03-12T02:28:33;0.50;99.90
59148;DHT22;44930;52.878;6.168;2023-03-12T02:31:02;0.50;99.90
59148;DHT22;44930;52.878;6.168;2023-03-12T02:35:54;0.70;99.90
59148;DHT22;44930;52.878;6.168;2023-03-12T02:40:57;0.70;99.90
59148;DHT22;44930;52.878;6.168;2023-03-12T02:43:24;0.70;99.90
59148;DHT22;44930;52.878;6.168;2023-03-12T02:45:50;0.70;99.90
59148;DHT22;44930;52.878;6.168;2023-03-12T02:48:15;0.60;99.90
59148;DHT22;44930;52.878;6.168;2023-03-12T02:50:41;0.70;99.90
59148;DHT22;44930;52.878;6.168;2023-03-12T02:53:07;0.80;99.90
59148;DHT22;44930;52.878;6.168;2023-03-12T02:55:32;0.70;99.90
59148;DHT22;44930;52.878;6.168;2023-03-12T02:57:58;0.70;99.90
59148;DHT22;44930;52.878;6.168;2023-03-12T03:00:23;0.70;99.90
59148;DHT22;44930;52.878;6.168;2023-03-12T03:02:49;0.70;99.90
59148;DHT22;44930;52.878;6.168;2023-03-12T03:05:15;0.80;99.90
59148;DHT22;44930;52.878;6.168;2023-03-12T03:07:41;0.70;99.90
59148;DHT22;44930;52.878;6.168;2023-03-12T03:10:07;0.70;99.90
59148;DHT22;44930;52.878;6.168;2023-03-12T03:12:34;0.60;99.90
59148;DHT22;44930;52.878;6.168;2023-03-12T03:15:00;0.60;99.90
59148;DHT22;44930;52.878;6.168;2023-03-12T03:17:26;0.70;99.90
59148;DHT22;44930;52.878;6.168;2023-03-12T03:19:52;0.70;99.90
59148;DHT22;44930;52.878;6.168;2023-03-12T03:22:19;0.70;99.90
59148;DHT22;44930;52.878;6.168;2023-03-12T03:24:45;0.70;99.90
59148;DHT22;44930;52.878;6.168;2023-03-12T03:27:11;0.80;99.90
59148;DHT22;44930;52.878;6.168;2023-03-12T03:29:37;0.80;99.90
59148;DHT22;44930;52.878;6.168;2023-03-12T03:32:03;0.60;99.90
59148;DHT22;44930;52.878;6.168;2023-03-12T03:34:29;0.80;99.90
59148;DHT22;44930;52.878;6.168;2023-03-12T03:36:55;0.70;99.90
59148;DHT22;44930;52.878;6.168;2023-03-12T03:39:20;0.70;99.90
59148;DHT22;44930;52.878;6.168;2023-03-12T03:41:46;0.80;99.90
59148;DHT22;44930;52.878;6.168;2023-03-12T03:44:12;0.90;99.90
59148;DHT22;44930;52.878;6.168;2023-03-12T03:46:38;0.90;99.90
59148;DHT22;44930;52.878;6.168;2023-03-12T03:51:30;0.80;99.90
59148;DHT22;44930;52.878;6.168;2023-03-12T03:53:57;1.00;99.90
59148;DHT22;44930;52.878;6.168;2023-03-12T03:56:24;0.80;99.90
59148;DHT22;44930;52.878;6.168;2023-03-12T04:01:16;0.80;99.90
59148;DHT22;44930;52.878;6.168;2023-03-12T04:03:42;0.80;99.90
59148;DHT22;44930;52.878;6.168;2023-03-12T04:06:08;0.80;99.90
59148;DHT22;44930;52.878;6.168;2023-03-12T04:08:35;0.90;99.90
59148;DHT22;44930;52.878;6.168;2023-03-12T04:11:09;1.30;99.90
59148;DHT22;44930;52.878;6.168;2023-03-12T04:13:35;0.70;99.90
59148;DHT22;44930;52.878;6.168;2023-03-12T04:16:01;1.00;99.90
59148;DHT22;44930;52.878;6.168;2023-03-12T04:18:27;0.90;99.90
59148;DHT22;44930;52.878;6.168;2023-03-12T04:20:52;0.80;99.90
59148;DHT22;44930;52.878;6.168;2023-03-12T04:25:44;0.90;99.90
59148;DHT22;44930;52.878;6.168;2023-03-12T04:28:09;1.00;99.90
59148;DHT22;44930;52.878;6.168;2023-03-12T04:30:35;1.00;99.90
59148;DHT22;44930;52.878;6.168;2023-03-12T04:33:06;0.90;99.90
59148;DHT22;44930;52.878;6.168;2023-03-12T04:40:25;1.00;99.90
59148;DHT22;44930;52.878;6.168;2023-03-12T04:42:51;0.90;99.90
59148;DHT22;44930;52.878;6.168;2023-03-12T04:47:42;1.00;99.90
59148;DHT22;44930;52.878;6.168;2023-03-12T04:50:08;0.90;99.90
59148;DHT22;44930;52.878;6.168;2023-03-12T04:55:00;1.00;99.90
59148;DHT22;44930;52.878;6.168;2023-03-12T04:57:26;1.00;99.90
59148;DHT22;44930;52.878;6.168;2023-03-12T04:59:51;1.00;99.90
59148;DHT22;44930;52.878;6.168;2023-03-12T05:02:17;1.00;99.90
59148;DHT22;44930;52.878;6.168;2023-03-12T05:04:43;1.10;99.90
59148;DHT22;44930;52.878;6.168;2023-03-12T05:07:09;1.10;99.90
59148;DHT22;44930;52.878;6.168;2023-03-12T05:12:00;1.00;99.90
59148;DHT22;44930;52.878;6.168;2023-03-12T05:14:26;1.10;99.90
59148;DHT22;44930;52.878;6.168;2023-03-12T05:16:51;1.00;99.90
59148;DHT22;44930;52.878;6.168;2023-03-12T05:19:17;1.20;99.90
59148;DHT22;44930;52.878;6.168;2023-03-12T05:24:09;1.10;99.90
59148;DHT22;44930;52.878;6.168;2023-03-12T05:26:35;1.00;99.90
59148;DHT22;44930;52.878;6.168;2023-03-12T05:31:28;1.00;99.90
59148;DHT22;44930;52.878;6.168;2023-03-12T05:36:24;1.00;99.90
59148;DHT22;44930;52.878;6.168;2023-03-12T05:38:49;1.00;99.90
59148;DHT22;44930;52.878;6.168;2023-03-12T05:41:23;1.00;99.90
59148;DHT22;44930;52.878;6.168;2023-03-12T05:43:49;1.00;99.90
59148;DHT22;44930;52.878;6.168;2023-03-12T05:46:16;1.00;99.90
59148;DHT22;44930;52.878;6.168;2023-03-12T05:48:41;0.90;99.90
59148;DHT22;44930;52.878;6.168;2023-03-12T05:51:07;1.00;99.90
59148;DHT22;44930;52.878;6.168;2023-03-12T05:53:32;1.10;99.90
59148;DHT22;44930;52.878;6.168;2023-03-12T05:56:03;0.80;99.90
59148;DHT22;44930;52.878;6.168;2023-03-12T05:58:29;1.00;99.90
59148;DHT22;44930;52.878;6.168;2023-03-12T06:00:54;1.10;99.90
59148;DHT22;44930;52.878;6.168;2023-03-12T06:08:13;1.10;99.90
59148;DHT22;44930;52.878;6.168;2023-03-12T06:13:05;1.20;99.90
59148;DHT22;44930;52.878;6.168;2023-03-12T06:15:31;1.20;99.90
59148;DHT22;44930;52.878;6.168;2023-03-12T06:17:56;1.20;99.90
59148;DHT22;44930;52.878;6.168;2023-03-12T06:22:48;1.30;99.90
59148;DHT22;44930;52.878;6.168;2023-03-12T06:25:14;1.20;99.90
59148;DHT22;44930;52.878;6.168;2023-03-12T06:27:39;1.30;99.90
59148;DHT22;44930;52.878;6.168;2023-03-12T06:30:06;1.40;99.90
59148;DHT22;44930;52.878;6.168;2023-03-12T06:32:31;1.30;99.90
59148;DHT22;44930;52.878;6.168;2023-03-12T06:34:57;1.40;99.90
59148;DHT22;44930;52.878;6.168;2023-03-12T06:37:25;1.40;99.90
59148;DHT22;44930;52.878;6.168;2023-03-12T06:39:51;1.40;99.90
59148;DHT22;44930;52.878;6.168;2023-03-12T06:42:16;1.30;99.90
59148;DHT22;44930;52.878;6.168;2023-03-12T06:44:44;1.40;99.90
59148;DHT22;44930;52.878;6.168;2023-03-12T06:47:09;1.40;99.90
59148;DHT22;44930;52.878;6.168;2023-03-12T06:52:02;1.40;99.90
59148;DHT22;44930;52.878;6.168;2023-03-12T06:54:28;1.20;99.90
59148;DHT22;44930;52.878;6.168;2023-03-12T06:56:53;1.50;99.90
59148;DHT22;44930;52.878;6.168;2023-03-12T06:59:19;1.40;99.90
59148;DHT22;44930;52.878;6.168;2023-03-12T07:01:46;1.30;99.90
59148;DHT22;44930;52.878;6.168;2023-03-12T07:04:12;1.60;99.90
59148;DHT22;44930;52.878;6.168;2023-03-12T07:06:38;1.40;99.90
59148;DHT22;44930;52.878;6.168;2023-03-12T07:09:04;1.40;99.90
59148;DHT22;44930;52.878;6.168;2023-03-12T07:11:30;1.30;99.90
59148;DHT22;44930;52.878;6.168;2023-03-12T07:13:56;1.50;99.90
59148;DHT22;44930;52.878;6.168;2023-03-12T07:18:48;1.50;99.90
59148;DHT22;44930;52.878;6.168;2023-03-12T07:23:48;1.40;99.90
59148;DHT22;44930;52.878;6.168;2023-03-12T07:26:14;1.40;99.90
59148;DHT22;44930;52.878;6.168;2023-03-12T07:28:40;1.50;99.90
59148;DHT22;44930;52.878;6.168;2023-03-12T07:31:06;1.40;99.90
59148;DHT22;44930;52.878;6.168;2023-03-12T07:33:32;1.50;99.90
59148;DHT22;44930;52.878;6.168;2023-03-12T07:35:58;1.20;99.90
59148;DHT22;44930;52.878;6.168;2023-03-12T07:38:24;1.60;99.90
59148;DHT22;44930;52.878;6.168;2023-03-12T07:40:51;1.50;99.90
59148;DHT22;44930;52.878;6.168;2023-03-12T07:43:17;1.50;99.90
59148;DHT22;44930;52.878;6.168;2023-03-12T07:45:42;1.50;99.90
59148;DHT22;44930;52.878;6.168;2023-03-12T07:48:08;1.50;99.90
59148;DHT22;44930;52.878;6.168;2023-03-12T07:50:34;1.50;99.90
59148;DHT22;44930;52.878;6.168;2023-03-12T07:53:00;1.40;99.90
59148;DHT22;44930;52.878;6.168;2023-03-12T07:55:26;1.70;99.90
59148;DHT22;44930;52.878;6.168;2023-03-12T07:57:51;1.40;99.90
59148;DHT22;44930;52.878;6.168;2023-03-12T08:00:18;1.50;99.90
59148;DHT22;44930;52.878;6.168;2023-03-12T08:02:43;1.50;99.90
59148;DHT22;44930;52.878;6.168;2023-03-12T08:05:09;1.50;99.90
59148;DHT22;44930;52.878;6.168;2023-03-12T08:07:35;1.40;99.90
59148;DHT22;44930;52.878;6.168;2023-03-12T08:10:03;1.50;99.90
59148;DHT22;44930;52.878;6.168;2023-03-12T08:14:55;1.50;99.90
59148;DHT22;44930;52.878;6.168;2023-03-12T08:17:20;1.60;99.90
59148;DHT22;44930;52.878;6.168;2023-03-12T08:19:46;1.60;99.90
59148;DHT22;44930;52.878;6.168;2023-03-12T08:22:12;1.60;99.90
59148;DHT22;44930;52.878;6.168;2023-03-12T08:24:37;1.70;99.90
59148;DHT22;44930;52.878;6.168;2023-03-12T08:29:29;1.80;99.90
59148;DHT22;44930;52.878;6.168;2023-03-12T08:31:55;1.80;99.90
59148;DHT22;44930;52.878;6.168;2023-03-12T08:34:20;1.70;99.90
59148;DHT22;44930;52.878;6.168;2023-03-12T08:39:12;1.80;99.90
59148;DHT22;44930;52.878;6.168;2023-03-12T08:44:03;1.80;99.90
59148;DHT22;44930;52.878;6.168;2023-03-12T08:46:29;1.60;99.90
59148;DHT22;44930;52.878;6.168;2023-03-12T08:48:54;1.90;99.90
59148;DHT22;44930;52.878;6.168;2023-03-12T08:53:46;2.10;99.90
59148;DHT22;44930;52.878;6.168;2023-03-12T08:56:11;2.00;99.90
59148;DHT22;44930;52.878;6.168;2023-03-12T08:58:37;2.00;99.90
59148;DHT22;44930;52.878;6.168;2023-03-12T09:01:08;1.90;99.90
59148;DHT22;44930;52.878;6.168;2023-03-12T09:03:33;2.00;99.90
59148;DHT22;44930;52.878;6.168;2023-03-12T09:06:07;2.10;99.90
59148;DHT22;44930;52.878;6.168;2023-03-12T09:13:29;2.10;99.90
59148;DHT22;44930;52.878;6.168;2023-03-12T09:15:59;2.10;99.90
59148;DHT22;44930;52.878;6.168;2023-03-12T09:18:25;2.10;99.90
59148;DHT22;44930;52.878;6.168;2023-03-12T09:20:50;2.20;99.90
59148;DHT22;44930;52.878;6.168;2023-03-12T09:23:16;2.10;99.90
59148;DHT22;44930;52.878;6.168;2023-03-12T09:25:45;2.10;99.90
59148;DHT22;44930;52.878;6.168;2023-03-12T09:28:11;2.30;99.90
59148;DHT22;44930;52.878;6.168;2023-03-12T09:30:36;2.40;99.90
59148;DHT22;44930;52.878;6.168;2023-03-12T09:35:28;2.30;99.90
59148;DHT22;44930;52.878;6.168;2023-03-12T09:37:56;2.30;99.90
59148;DHT22;44930;52.878;6.168;2023-03-12T09:40:23;2.20;99.90
59148;DHT22;44930;52.878;6.168;2023-03-12T09:42:58;1.90;99.90
59148;DHT22;44930;52.878;6.168;2023-03-12T09:45:29;2.40;99.90
59148;DHT22;44930;52.878;6.168;2023-03-12T09:47:58;2.40;99.90
59148;DHT22;44930;52.878;6.168;2023-03-12T09:55:38;2.50;99.90
59148;DHT22;44930;52.878;6.168;2023-03-12T09:58:13;3.00;99.90
59148;DHT22;44930;52.878;6.168;2023-03-12T10:06:13;3.00;99.90
59148;DHT22;44930;52.878;6.168;2023-03-12T10:08:57;2.60;99.90
59148;DHT22;44930;52.878;6.168;2023-03-12T10:12:15;2.70;99.90
59148;DHT22;44930;52.878;6.168;2023-03-12T10:20:36;2.60;99.90
59148;DHT22;44930;52.878;6.168;2023-03-12T10:26:09;2.70;99.90
59148;DHT22;44930;52.878;6.168;2023-03-12T10:28:42;3.10;99.90
59148;DHT22;44930;52.878;6.168;2023-03-12T10:31:58;2.80;99.90
59148;DHT22;44930;52.878;6.168;2023-03-12T10:35:12;3.10;99.90
59148;DHT22;44930;52.878;6.168;2023-03-12T10:39:46;3.40;99.90
59148;DHT22;44930;52.878;6.168;2023-03-12T10:49:51;3.50;99.90
59148;DHT22;44930;52.878;6.168;2023-03-12T10:52:22;3.60;99.90
59148;DHT22;44930;52.878;6.168;2023-03-12T10:54:50;3.60;99.90
59148;DHT22;44930;52.878;6.168;2023-03-12T10:59:44;3.60;99.90
59148;DHT22;44930;52.878;6.168;2023-03-12T11:04:53;3.60;99.90
59148;DHT22;44930;52.878;6.168;2023-03-12T11:10:26;3.40;99.90
59148;DHT22;44930;52.878;6.168;2023-03-12T11:13:04;4.00;99.90
59148;DHT22;44930;52.878;6.168;2023-03-12T11:15:38;4.10;99.90
59148;DHT22;44930;52.878;6.168;2023-03-12T11:18:24;4.10;99.90
59148;DHT22;44930;52.878;6.168;2023-03-12T11:20:55;4.00;99.90
59148;DHT22;44930;52.878;6.168;2023-03-12T11:23:26;4.10;99.90
59148;DHT22;44930;52.878;6.168;2023-03-12T11:25:59;4.10;99.90
59148;DHT22;44930;52.878;6.168;2023-03-12T11:28:38;4.20;99.90
59148;DHT22;44930;52.878;6.168;2023-03-12T11:33:34;4.40;99.90
59148;DHT22;44930;52.878;6.168;2023-03-12T11:39:08;4.60;99.90
59148;DHT22;44930;52.878;6.168;2023-03-12T11:44:20;5.20;99.90
59148;DHT22;44930;52.878;6.168;2023-03-12T12:00:27;6.00;99.90
59148;DHT22;44930;52.878;6.168;2023-03-12T12:11:23;6.50;99.90
59148;DHT22;44930;52.878;6.168;2023-03-12T12:24:44;6.60;99.90
59148;DHT22;44930;52.878;6.168;2023-03-12T12:27:35;6.80;99.90
59148;DHT22;44930;52.878;6.168;2023-03-12T12:30:21;6.80;99.90
59148;DHT22;44930;52.878;6.168;2023-03-12T12:33:17;6.80;99.90
59148;DHT22;44930;52.878;6.168;2023-03-12T12:35:48;7.20;99.90
59148;DHT22;44930;52.878;6.168;2023-03-12T12:38:31;7.10;99.90
59148;DHT22;44930;52.878;6.168;2023-03-12T12:41:11;7.40;99.90
59148;DHT22;44930;52.878;6.168;2023-03-12T12:48:45;7.50;99.90
59148;DHT22;44930;52.878;6.168;2023-03-12T12:51:14;7.60;99.90
59148;DHT22;44930;52.878;6.168;2023-03-12T12:56:37;7.50;99.90
59148;DHT22;44930;52.878;6.168;2023-03-12T12:59:19;8.00;99.90
59148;DHT22;44930;52.878;6.168;2023-03-12T13:01:54;7.80;99.90
59148;DHT22;44930;52.878;6.168;2023-03-12T13:04:31;8.00;99.90
59148;DHT22;44930;52.878;6.168;2023-03-12T13:09:46;8.00;99.90
59148;DHT22;44930;52.878;6.168;2023-03-12T13:14:46;8.30;99.90
59148;DHT22;44930;52.878;6.168;2023-03-12T13:17:18;7.90;99.90
59148;DHT22;44930;52.878;6.168;2023-03-12T13:19:49;8.00;99.90
59148;DHT22;44930;52.878;6.168;2023-03-12T13:28:30;8.30;99.90
59148;DHT22;44930;52.878;6.168;2023-03-12T13:31:02;8.30;99.90
59148;DHT22;44930;52.878;6.168;2023-03-12T13:33:48;8.30;99.90
59148;DHT22;44930;52.878;6.168;2023-03-12T13:41:35;9.00;99.90
59148;DHT22;44930;52.878;6.168;2023-03-12T13:46:46;8.90;99.90
59148;DHT22;44930;52.878;6.168;2023-03-12T13:49:15;8.90;99.90
59148;DHT22;44930;52.878;6.168;2023-03-12T13:54:33;8.90;99.90
59148;DHT22;44930;52.878;6.168;2023-03-12T13:57:04;8.90;99.90
59148;DHT22;44930;52.878;6.168;2023-03-12T13:59:35;9.20;99.90
59148;DHT22;44930;52.878;6.168;2023-03-12T14:02:47;9.10;99.90
59148;DHT22;44930;52.878;6.168;2023-03-12T14:05:09;8.80;99.90
59148;DHT22;44930;52.878;6.168;2023-03-12T14:07:45;8.80;99.90
59148;DHT22;44930;52.878;6.168;2023-03-12T14:10:22;8.90;99.90
59148;DHT22;44930;52.878;6.168;2023-03-12T14:12:53;8.80;99.90
59148;DHT22;44930;52.878;6.168;2023-03-12T14:15:36;8.90;99.90
59148;DHT22;44930;52.878;6.168;2023-03-12T14:18:12;9.00;99.90
59148;DHT22;44930;52.878;6.168;2023-03-12T14:20:40;8.90;99.90
59148;DHT22;44930;52.878;6.168;2023-03-12T14:25:42;9.00;99.90
59148;DHT22;44930;52.878;6.168;2023-03-12T14:28:20;9.00;99.90
59148;DHT22;44930;52.878;6.168;2023-03-12T14:31:08;8.80;99.90
59148;DHT22;44930;52.878;6.168;2023-03-12T14:36:44;8.70;99.90
59148;DHT22;44930;52.878;6.168;2023-03-12T14:39:31;9.00;99.90
59148;DHT22;44930;52.878;6.168;2023-03-12T14:42:03;9.10;99.90
59148;DHT22;44930;52.878;6.168;2023-03-12T14:44:37;9.30;99.90
59148;DHT22;44930;52.878;6.168;2023-03-12T14:47:05;9.10;99.90
59148;DHT22;44930;52.878;6.168;2023-03-12T14:49:44;9.10;99.90
59148;DHT22;44930;52.878;6.168;2023-03-12T14:52:11;9.20;99.90
59148;DHT22;44930;52.878;6.168;2023-03-12T14:54:37;9.10;99.90
59148;DHT22;44930;52.878;6.168;2023-03-12T14:57:05;9.20;99.90
59148;DHT22;44930;52.878;6.168;2023-03-12T14:59:33;9.20;99.90
59148;DHT22;44930;52.878;6.168;2023-03-12T15:02:13;9.60;99.90
59148;DHT22;44930;52.878;6.168;2023-03-12T15:04:39;9.30;99.90
59148;DHT22;44930;52.878;6.168;2023-03-12T15:09:34;9.30;99.90
59148;DHT22;44930;52.878;6.168;2023-03-12T15:12:01;9.50;99.90
59148;DHT22;44930;52.878;6.168;2023-03-12T15:14:31;9.30;99.90
59148;DHT22;44930;52.878;6.168;2023-03-12T15:16:58;9.60;99.90
59148;DHT22;44930;52.878;6.168;2023-03-12T15:19:31;9.50;99.90
59148;DHT22;44930;52.878;6.168;2023-03-12T15:21:58;9.40;99.90
59148;DHT22;44930;52.878;6.168;2023-03-12T15:24:23;9.40;99.90
59148;DHT22;44930;52.878;6.168;2023-03-12T15:26:49;9.50;99.90
59148;DHT22;44930;52.878;6.168;2023-03-12T15:29:22;9.50;99.90
59148;DHT22;44930;52.878;6.168;2023-03-12T15:31:58;9.60;99.90
59148;DHT22;44930;52.878;6.168;2023-03-12T15:34:37;9.30;99.90
59148;DHT22;44930;52.878;6.168;2023-03-12T15:37:30;9.40;99.90
59148;DHT22;44930;52.878;6.168;2023-03-12T15:40:07;9.40;99.90
59148;DHT22;44930;52.878;6.168;2023-03-12T15:42:42;9.30;99.90
59148;DHT22;44930;52.878;6.168;2023-03-12T15:47:59;9.30;99.90
59148;DHT22;44930;52.878;6.168;2023-03-12T15:50:39;9.20;99.90
59148;DHT22;44930;52.878;6.168;2023-03-12T15:53:21;9.40;99.90
59148;DHT22;44930;52.878;6.168;2023-03-12T15:58:41;9.30;99.90
59148;DHT22;44930;52.878;6.168;2023-03-12T16:01:11;9.20;99.90
59148;DHT22;44930;52.878;6.168;2023-03-12T16:03:37;9.20;99.90
59148;DHT22;44930;52.878;6.168;2023-03-12T16:06:04;9.20;99.90
59148;DHT22;44930;52.878;6.168;2023-03-12T16:10:59;9.20;99.90
59148;DHT22;44930;52.878;6.168;2023-03-12T16:13:28;9.10;99.90
59148;DHT22;44930;52.878;6.168;2023-03-12T16:15:55;9.30;99.90
59148;DHT22;44930;52.878;6.168;2023-03-12T16:18:22;9.20;99.90
59148;DHT22;44930;52.878;6.168;2023-03-12T16:20:50;9.10;99.90
59148;DHT22;44930;52.878;6.168;2023-03-12T16:23:16;9.20;99.90
59148;DHT22;44930;52.878;6.168;2023-03-12T16:25:44;9.10;99.90
59148;DHT22;44930;52.878;6.168;2023-03-12T16:28:12;8.90;99.90
59148;DHT22;44930;52.878;6.168;2023-03-12T16:30:38;9.00;99.90
59148;DHT22;44930;52.878;6.168;2023-03-12T16:33:05;9.10;99.90
59148;DHT22;44930;52.878;6.168;2023-03-12T16:35:31;9.10;99.90
59148;DHT22;44930;52.878;6.168;2023-03-12T16:38:00;9.00;99.90
59148;DHT22;44930;52.878;6.168;2023-03-12T16:40:28;9.10;99.90
59148;DHT22;44930;52.878;6.168;2023-03-12T16:45:21;9.10;99.90
59148;DHT22;44930;52.878;6.168;2023-03-12T16:47:52;9.00;99.90
59148;DHT22;44930;52.878;6.168;2023-03-12T16:50:21;9.00;99.90
59148;DHT22;44930;52.878;6.168;2023-03-12T16:52:48;9.00;99.90
59148;DHT22;44930;52.878;6.168;2023-03-12T16:55:22;9.00;99.90
59148;DHT22;44930;52.878;6.168;2023-03-12T16:57:53;8.60;99.90
59148;DHT22;44930;52.878;6.168;2023-03-12T17:00:27;9.20;99.90
59148;DHT22;44930;52.878;6.168;2023-03-12T17:02:53;9.00;99.90
59148;DHT22;44930;52.878;6.168;2023-03-12T17:05:23;8.80;99.90
59148;DHT22;44930;52.878;6.168;2023-03-12T17:07:49;8.90;99.90
59148;DHT22;44930;52.878;6.168;2023-03-12T17:10:15;8.80;99.90
59148;DHT22;44930;52.878;6.168;2023-03-12T17:12:40;8.70;99.90
59148;DHT22;44930;52.878;6.168;2023-03-12T17:15:18;8.60;99.90
59148;DHT22;44930;52.878;6.168;2023-03-12T17:17:44;8.70;99.90
59148;DHT22;44930;52.878;6.168;2023-03-12T17:20:13;8.70;99.90
59148;DHT22;44930;52.878;6.168;2023-03-12T17:22:39;8.50;99.90
59148;DHT22;44930;52.878;6.168;2023-03-12T17:25:06;8.60;99.90
59148;DHT22;44930;52.878;6.168;2023-03-12T17:27:32;8.60;99.90
59148;DHT22;44930;52.878;6.168;2023-03-12T17:29:58;8.60;99.90
59148;DHT22;44930;52.878;6.168;2023-03-12T17:32:23;8.70;99.90
59148;DHT22;44930;52.878;6.168;2023-03-12T17:34:56;8.30;99.90
59148;DHT22;44930;52.878;6.168;2023-03-12T17:39:50;8.40;99.90
59148;DHT22;44930;52.878;6.168;2023-03-12T17:42:15;8.40;99.90
59148;DHT22;44930;52.878;6.168;2023-03-12T17:44:41;8.40;99.90
59148;DHT22;44930;52.878;6.168;2023-03-12T17:47:06;8.60;99.90
59148;DHT22;44930;52.878;6.168;2023-03-12T17:49:32;8.40;99.90
59148;DHT22;44930;52.878;6.168;2023-03-12T17:52:00;8.40;99.90
59148;DHT22;44930;52.878;6.168;2023-03-12T17:54:26;8.40;99.90
59148;DHT22;44930;52.878;6.168;2023-03-12T17:56:51;8.50;99.90
59148;DHT22;44930;52.878;6.168;2023-03-12T17:59:17;8.30;99.90
59148;DHT22;44930;52.878;6.168;2023-03-12T18:01:43;8.30;99.90
59148;DHT22;44930;52.878;6.168;2023-03-12T18:09:00;8.40;99.90
59148;DHT22;44930;52.878;6.168;2023-03-12T18:11:25;8.30;99.90
59148;DHT22;44930;52.878;6.168;2023-03-12T18:13:51;8.20;99.90
59148;DHT22;44930;52.878;6.168;2023-03-12T18:16:17;8.30;99.90
59148;DHT22;44930;52.878;6.168;2023-03-12T18:21:08;8.40;99.90
59148;DHT22;44930;52.878;6.168;2023-03-12T18:23:34;8.30;99.90
59148;DHT22;44930;52.878;6.168;2023-03-12T18:25:59;8.20;99.90
59148;DHT22;44930;52.878;6.168;2023-03-12T18:28:25;8.10;99.90
59148;DHT22;44930;52.878;6.168;2023-03-12T18:30:52;8.30;99.90
59148;DHT22;44930;52.878;6.168;2023-03-12T18:35:44;8.10;99.90
59148;DHT22;44930;52.878;6.168;2023-03-12T18:38:09;8.30;99.90
59148;DHT22;44930;52.878;6.168;2023-03-12T18:40:35;8.20;99.90
59148;DHT22;44930;52.878;6.168;2023-03-12T18:43:00;8.30;99.90
59148;DHT22;44930;52.878;6.168;2023-03-12T18:45:27;8.30;99.90
59148;DHT22;44930;52.878;6.168;2023-03-12T18:50:19;8.30;99.90
59148;DHT22;44930;52.878;6.168;2023-03-12T18:52:46;8.40;99.90
59148;DHT22;44930;52.878;6.168;2023-03-12T18:55:12;8.40;99.90
59148;DHT22;44930;52.878;6.168;2023-03-12T18:57:44;8.30;99.90
59148;DHT22;44930;52.878;6.168;2023-03-12T19:00:12;8.30;99.90
59148;DHT22;44930;52.878;6.168;2023-03-12T19:02:39;8.30;99.90
59148;DHT22;44930;52.878;6.168;2023-03-12T19:05:05;8.30;99.90
59148;DHT22;44930;52.878;6.168;2023-03-12T19:07:31;8.30;99.90
59148;DHT22;44930;52.878;6.168;2023-03-12T19:09:57;8.20;99.90
59148;DHT22;44930;52.878;6.168;2023-03-12T19:12:23;8.20;99.90
59148;DHT22;44930;52.878;6.168;2023-03-12T19:14:48;8.30;99.90
59148;DHT22;44930;52.878;6.168;2023-03-12T19:17:14;8.20;99.90
59148;DHT22;44930;52.878;6.168;2023-03-12T19:19:39;8.30;99.90
59148;DHT22;44930;52.878;6.168;2023-03-12T19:22:05;8.10;99.90
59148;DHT22;44930;52.878;6.168;2023-03-12T19:24:31;8.20;99.90
59148;DHT22;44930;52.878;6.168;2023-03-12T19:26:57;8.30;99.90
59148;DHT22;44930;52.878;6.168;2023-03-12T19:29:23;8.30;99.90
59148;DHT22;44930;52.878;6.168;2023-03-12T19:34:14;8.20;99.90
59148;DHT22;44930;52.878;6.168;2023-03-12T19:39:08;8.30;99.90
59148;DHT22;44930;52.878;6.168;2023-03-12T19:41:35;8.20;99.90
59148;DHT22;44930;52.878;6.168;2023-03-12T19:44:01;8.30;99.90
59148;DHT22;44930;52.878;6.168;2023-03-12T19:46:27;8.30;99.90
59148;DHT22;44930;52.878;6.168;2023-03-12T19:48:52;8.30;99.90
59148;DHT22;44930;52.878;6.168;2023-03-12T19:51:18;8.40;99.90
59148;DHT22;44930;52.878;6.168;2023-03-12T19:53:43;8.50;99.90
59148;DHT22;44930;52.878;6.168;2023-03-12T19:56:09;8.40;99.90
59148;DHT22;44930;52.878;6.168;2023-03-12T19:58:34;8.50;99.90
59148;DHT22;44930;52.878;6.168;2023-03-12T20:01:01;8.40;99.90
59148;DHT22;44930;52.878;6.168;2023-03-12T20:03:28;8.50;99.90
59148;DHT22;44930;52.878;6.168;2023-03-12T20:05:54;8.40;99.90
59148;DHT22;44930;52.878;6.168;2023-03-12T20:08:20;8.50;99.90
59148;DHT22;44930;52.878;6.168;2023-03-12T20:10:47;8.50;99.90